x

Ne Puerto Rico - 170 Nm Nne Of San Juan, P R (41043) Wave Buoy

8:50am - Wed 27th May 2015 All times are AST. -4 hours from GMT.

  • Sig Wave height 5.2ft
  • Swell Direction
  • Peak Period 8s
  • Average Period 6s
  • Wind
    11mph, 16mph gusts
  • Sea Temp 81°f
  • Air Temp 79°f
  • Sea Pressure 1016mb
  • Ne Puerto Rico  - 170 Nm Nne Of San Juan,  P R
  • Ne Puerto Rico  - 170 Nm Nne Of San Juan,  P R

More Historic Weather Station data

Upgrade to MSW Pro to gain access to the past 30 days of data for over 8000 Wavebouys and Weather Stations around the globe.

Join Pro

Comparision Forecast

View Surf forecast
   
Wed 05/27 8:50am 5ft 8s 6s 11 16 mph 1016mb 81f 79f
7:50am 5.5ft 8s 6s 11 13 mph 1015.6mb 81f 79f
6:50am 5ft 8s 6s 11 13 mph 1015.1mb 81f 79f
5:50am 5ft 8s 6s 11
mph
1014.4mb 81f 79f
4:50am 5ft 8s 6s 4 7 mph 1014mb 81f 76f
3:50am 4.5ft 9s 6s 11 16 mph 1013.7mb 81f 78f
2:50am 4.5ft 8s 6s 13 16 mph 1014mb 81f 79f
1:50am 4.5ft 8s 6s 11 13 mph 1014.5mb 81f 79f
12:50am 4ft 8s 5s 11 16 mph 1015.2mb 81f 79f
Tue 05/26 11:50pm 4ft 8s 5s 13 18 mph 1016mb 81f 79f
10:50pm 3.5ft 8s 5s 16 20 mph 1016.5mb 81f 79f
9:50pm 4ft 8s 6s 13 16 mph 1016.8mb 81f 79f
8:50pm 4.5ft 8s 6s 13 18 mph 1016.5mb 81f 79f
7:50pm 4.5ft 8s 5s 13 16 mph 1016.1mb 81f 78f
6:50pm 4ft 9s 6s 13 16 mph 1015.9mb 82f 80f
5:50pm 4.5ft 8s 6s 11 13 mph 1015.7mb 82f 80f
4:50pm 4ft 9s 7s 11 13 mph 1015.8mb 82f 80f
3:50pm 4.5ft 8s 6s 11 22 mph 1015.9mb 82f 80f
2:50pm 3.5ft 8s 6s 9
mph
1016.2mb 82f 80f
12:50pm 4ft 9s 6s 9 11 mph 1017.3mb 82f 79f
11:50am 3.5ft 8s 6s 9 11 mph 1017.7mb 82f 79f
10:50am 4ft 8s 6s 9 11 mph 1018.1mb 81f 79f
9:50am 4ft 8s 6s 9 13 mph 1018.2mb 81f 79f
8:50am 4.5ft 8s 6s 9 11 mph 1018mb 81f 80f
7:50am 4.5ft 8s 6s 7 9 mph 1017.7mb 81f 80f
6:50am 4ft 8s 6s 9 13 mph 1017.4mb 81f 79f
5:50am 4.5ft 8s 6s 9 11 mph 1016.8mb 81f 79f
4:50am 4ft 8s 6s 11
mph
1016.5mb 81f 79f
3:50am 4ft 8s 6s 9 11 mph 1016.4mb 81f 79f
2:50am 4ft 8s 6s 11 16 mph 1016.5mb 81f 79f
1:50am 4ft 8s 6s 11 13 mph 1017.1mb 81f 79f
12:50am 4ft 9s 6s 11 13 mph 1017.7mb 81f 80f
Mon 05/25 11:50pm 4ft 8s 6s 13 16 mph 1018.4mb 81f 80f
10:50pm 4.5ft 8s 6s 11 16 mph 1018.9mb 81f 80f
9:50pm 4.5ft 8s 6s 11 13 mph 1018.9mb 81f 80f
8:50pm 4.5ft 8s 5s 11 16 mph 1018.8mb 82f 80f
7:50pm 4ft 8s 6s 11 13 mph 1018.5mb 82f 80f
6:50pm 4.5ft 8s 6s 11 13 mph 1018mb 82f 80f
5:50pm 4.5ft 8s 6s 11 13 mph 1018.1mb 82f 80f
4:50pm 4ft 9s 6s 11 13 mph 1018mb 82f 80f
3:50pm 4.5ft 8s 6s 9 11 mph 1018.3mb 82f 80f
2:50pm 4.5ft 8s 6s 11 13 mph 1018.3mb 82f 80f
1:50pm 4.5ft 8s 6s 9 11 mph 1018.8mb 82f 80f
12:50pm 4.5ft 9s 6s 11 13 mph 1019.3mb 82f 80f
11:50am 4.5ft 9s 6s 11 13 mph 1019.8mb 82f 80f
10:50am 4.5ft 8s 6s 11 13 mph 1020.1mb 81f 80f
9:50am 4.5ft 7s 6s 11 13 mph 1019.8mb 81f 80f
8:50am 4.5ft 8s 5s 11 13 mph 1019.6mb 81f 80f
7:50am 4.5ft 10s 6s 13 16 mph 1019.3mb 81f 80f
6:50am 4.5ft 8s 5s 16 18 mph 1018.6mb 81f 80f
5:50am 5ft 7s 5s 13 16 mph 1018.3mb 81f 79f
4:50am 4.5ft 6s 5s 13 16 mph 1017.8mb 81f 80f
3:50am 4.5ft 7s 5s 18 20 mph 1017.7mb 81f 80f
2:50am 4.5ft 8s 5s 16 20 mph 1017.9mb 81f 80f
1:50am 4.5ft 7s 5s 18 20 mph 1018.1mb 81f 80f
12:50am 4.5ft 8s 5s 18 20 mph 1018.8mb 81f 80f
Sun 05/24 11:50pm 4ft 7s 5s 18 20 mph 1019.6mb 81f 80f
10:50pm 4ft 8s 5s 18 20 mph 1020.1mb 81f 80f
9:50pm 4.5ft 7s 5s 16 18 mph 1020.3mb 81f 81f
8:50pm 4ft 7s 5s 16
mph
1019.8mb 81f 80f
7:50pm 4ft 8s 5s 16 18 mph 1019.5mb 81f 81f
6:50pm 4ft 7s 5s 16 18 mph 1019mb 82f 80f
5:50pm 4.5ft 8s 5s 13 18 mph 1018.6mb 82f 81f
4:50pm 4.5ft 7s 5s 13 18 mph 1018.3mb 82f 81f
3:50pm 4.5ft 7s 5s 13 16 mph 1018.3mb 82f 81f
2:50pm 4ft 7s 5s 13 16 mph 1018.6mb 82f 80f
1:50pm 4.5ft 7s 5s 13 16 mph 1019.2mb 82f 80f
12:50pm 4.5ft 8s 5s 16 18 mph 1019.7mb 81f 80f
11:50am 4ft 8s 5s 16 18 mph 1020.2mb 81f 80f
10:50am 4.5ft 7s 5s 16 18 mph 1020.5mb 81f 80f
9:50am 4.5ft 7s 5s 16 18 mph 1020.5mb 81f 80f
8:50am 4ft 7s 5s 16 20 mph 1020.1mb 81f 80f
7:50am 4ft 8s 5s 16 20 mph 1019.8mb 81f 80f
6:50am 4ft 7s 5s 13 16 mph 1019.5mb 81f 80f
5:50am 4.5ft 7s 5s 13 18 mph 1019.2mb 81f 80f
4:50am 4ft 7s 5s 16 20 mph 1018.6mb 81f 80f
3:50am 4ft 7s 5s 16 18 mph 1018.3mb 81f 80f
2:50am 4ft 6s 5s 18 20 mph 1018.6mb 81f 80f
1:50am 4ft 7s 5s 16 20 mph 1019.1mb 81f 80f
12:50am 4.5ft 6s 5s 16 20 mph 1019.5mb 81f 80f
Sat 05/23 11:50pm 3.5ft 7s 5s 18 20 mph 1020.1mb 81f 80f
10:50pm 4ft 7s 5s 16 18 mph 1020.6mb 81f 80f
9:50pm 4ft 7s 5s 18 20 mph 1020.8mb 81f 80f
8:50pm 4ft 6s 5s 18 20 mph 1020.8mb 81f 80f
7:50pm 4ft 6s 5s 16 18 mph 1020.4mb 81f 80f
6:50pm 4ft 6s 5s 18 20 mph 1020.2mb 81f 81f
5:50pm 3.5ft 6s 5s 16 20 mph 1020.1mb 81f 81f
4:50pm 3.5ft 6s 5s 16 18 mph 1020mb 81f 81f
3:50pm 4ft 6s 5s 13 16 mph 1020mb 81f 81f
2:50pm 3.5ft 7s 5s 11 13 mph 1020.1mb 81f 81f